createdAt,value
2022-10-29T00:02:11.699Z,17.70
2022-10-29T00:04:38.390Z,17.70
2022-10-29T00:07:05.016Z,17.60
2022-10-29T00:09:31.636Z,17.60
2022-10-29T00:11:58.250Z,17.50
2022-10-29T00:14:24.971Z,17.40
2022-10-29T00:16:51.589Z,17.40
2022-10-29T00:19:18.245Z,17.40
2022-10-29T00:21:44.928Z,17.30
2022-10-29T00:24:11.694Z,17.30
2022-10-29T00:26:38.290Z,17.20
2022-10-29T00:29:04.924Z,17.20
2022-10-29T00:31:31.680Z,17.20
2022-10-29T00:33:58.432Z,17.10
2022-10-29T00:36:27.822Z,17.10
2022-10-29T00:38:55.094Z,17.10
2022-10-29T00:41:26.527Z,17.10
2022-10-29T00:44:20.414Z,17.10
2022-10-29T00:46:58.693Z,17.00
2022-10-29T00:49:26.471Z,16.90
2022-10-29T00:51:53.427Z,16.90
2022-10-29T00:54:20.401Z,16.90
2022-10-29T00:56:51.335Z,16.90
2022-10-29T00:59:18.469Z,16.90
2022-10-29T01:01:48.424Z,16.90
2022-10-29T01:04:17.023Z,16.90
2022-10-29T01:06:44.067Z,16.80
2022-10-29T01:09:10.769Z,16.80
2022-10-29T01:12:23.500Z,16.80
2022-10-29T01:15:21.354Z,16.70
2022-10-29T01:18:32.547Z,16.70
2022-10-29T01:21:36.650Z,16.70
2022-10-29T01:24:23.728Z,16.60
2022-10-29T01:27:28.197Z,16.60
2022-10-29T01:30:39.275Z,16.60
2022-10-29T01:33:28.825Z,16.60
2022-10-29T01:36:04.660Z,16.50
2022-10-29T01:38:47.383Z,16.50
2022-10-29T01:41:32.628Z,16.50
2022-10-29T01:44:13.205Z,16.40
2022-10-29T01:46:46.803Z,16.40
2022-10-29T01:49:19.597Z,16.40
2022-10-29T01:51:48.436Z,16.40
2022-10-29T01:54:15.107Z,16.30
2022-10-29T01:56:41.789Z,16.30
2022-10-29T01:59:22.968Z,16.40
2022-10-29T02:02:25.007Z,16.30
2022-10-29T02:05:12.547Z,16.30
2022-10-29T02:07:52.501Z,16.30
2022-10-29T02:10:39.393Z,16.30
2022-10-29T02:13:08.091Z,16.30
2022-10-29T02:15:43.297Z,16.40
2022-10-29T02:18:10.240Z,16.40
2022-10-29T02:20:42.707Z,15.00
2022-10-29T02:23:09.556Z,16.30
2022-10-29T02:25:36.419Z,16.20
2022-10-29T02:28:03.356Z,15.70
2022-10-29T02:30:29.958Z,16.20
2022-10-29T02:32:57.041Z,16.20
2022-10-29T02:35:24.032Z,16.20
2022-10-29T02:37:50.884Z,16.20
2022-10-29T02:40:17.615Z,16.20
2022-10-29T02:42:44.248Z,16.20
2022-10-29T02:45:11.031Z,16.20
2022-10-29T02:47:37.636Z,16.10
2022-10-29T02:50:04.656Z,16.10
2022-10-29T02:52:31.244Z,16.10
2022-10-29T02:54:57.929Z,16.10
2022-10-29T02:57:24.719Z,16.20
2022-10-29T02:59:51.386Z,16.20
2022-10-29T03:02:18.094Z,16.20
2022-10-29T03:04:44.916Z,16.20
2022-10-29T03:07:11.569Z,16.10
2022-10-29T03:09:38.227Z,16.20
2022-10-29T03:12:05.029Z,16.20
2022-10-29T03:14:31.690Z,16.10
2022-10-29T03:16:58.366Z,16.10
2022-10-29T03:19:25.041Z,16.20
2022-10-29T03:21:51.660Z,16.10
2022-10-29T03:24:18.281Z,16.10
2022-10-29T03:26:44.917Z,16.00
2022-10-29T03:29:11.518Z,16.10
2022-10-29T03:31:38.128Z,16.10
2022-10-29T03:34:04.750Z,16.10
2022-10-29T03:36:31.477Z,16.10
2022-10-29T03:38:58.102Z,16.10
2022-10-29T03:41:24.720Z,16.10
2022-10-29T03:43:51.541Z,16.20
2022-10-29T03:46:18.335Z,16.10
2022-10-29T03:48:45.044Z,16.20
2022-10-29T03:51:11.740Z,16.10
2022-10-29T03:53:38.478Z,16.00
2022-10-29T03:56:05.325Z,16.00
2022-10-29T03:58:32.077Z,16.00
2022-10-29T04:01:01.312Z,16.00
2022-10-29T04:03:29.626Z,15.90
2022-10-29T04:05:56.908Z,16.00
2022-10-29T04:08:23.567Z,15.90
2022-10-29T04:10:51.268Z,16.00
2022-10-29T04:13:18.920Z,15.90
2022-10-29T04:15:46.374Z,16.00
2022-10-29T04:18:13.301Z,16.00
2022-10-29T04:21:29.300Z,16.00
2022-10-29T04:29:02.881Z,16.10
2022-10-29T04:31:29.618Z,16.10
2022-10-29T04:33:56.384Z,16.10
2022-10-29T04:36:23.057Z,16.10
2022-10-29T04:38:50.549Z,16.10
2022-10-29T04:41:17.320Z,16.10
2022-10-29T04:43:43.972Z,16.00
2022-10-29T04:46:11.380Z,16.00
2022-10-29T04:48:38.112Z,16.00
2022-10-29T04:51:05.004Z,16.00
2022-10-29T04:53:31.761Z,16.00
2022-10-29T04:56:03.507Z,16.00
2022-10-29T04:58:30.113Z,16.10
2022-10-29T05:01:05.044Z,16.00
2022-10-29T05:03:32.636Z,15.90
2022-10-29T05:06:01.766Z,15.90
2022-10-29T05:08:28.402Z,15.90
2022-10-29T05:10:55.088Z,16.00
2022-10-29T05:13:21.680Z,16.00
2022-10-29T05:15:53.496Z,16.10
2022-10-29T05:18:20.619Z,16.10
2022-10-29T05:20:47.289Z,16.10
2022-10-29T05:23:14.139Z,16.10
2022-10-29T05:25:41.774Z,16.10
2022-10-29T05:28:18.911Z,16.10
2022-10-29T05:30:46.857Z,16.10
2022-10-29T05:33:16.643Z,16.10
2022-10-29T05:35:43.681Z,16.10
2022-10-29T05:38:11.198Z,16.20
2022-10-29T05:40:37.948Z,16.20
2022-10-29T05:43:04.729Z,17.60
2022-10-29T05:45:31.812Z,16.20
2022-10-29T05:47:59.952Z,16.10
2022-10-29T05:50:27.122Z,16.10
2022-10-29T05:53:05.623Z,16.00
2022-10-29T05:55:33.505Z,16.00
2022-10-29T05:58:02.277Z,16.00
2022-10-29T06:00:31.203Z,16.00
2022-10-29T06:02:58.502Z,16.00
2022-10-29T06:05:25.892Z,16.10
2022-10-29T06:07:56.791Z,16.00
2022-10-29T06:10:25.648Z,15.90
2022-10-29T06:12:52.564Z,15.90
2022-10-29T06:15:19.933Z,15.80
2022-10-29T06:17:47.271Z,15.90
2022-10-29T06:20:15.628Z,15.90
2022-10-29T06:22:42.378Z,15.90
2022-10-29T06:25:10.676Z,16.10
2022-10-29T06:27:37.787Z,16.30
2022-10-29T06:30:05.859Z,16.50
2022-10-29T06:32:32.612Z,16.70
2022-10-29T06:34:59.260Z,16.90
2022-10-29T06:37:26.089Z,16.90
2022-10-29T06:39:52.795Z,17.10
2022-10-29T06:42:19.425Z,17.00
2022-10-29T06:44:46.069Z,16.90
2022-10-29T06:47:12.690Z,17.00
2022-10-29T06:49:39.320Z,17.20
2022-10-29T06:52:05.994Z,18.00
2022-10-29T06:54:32.772Z,17.30
2022-10-29T06:56:59.425Z,17.20
2022-10-29T06:59:26.089Z,17.20
2022-10-29T07:01:52.867Z,17.20
2022-10-29T07:04:20.817Z,17.10
2022-10-29T07:06:47.722Z,17.20
2022-10-29T07:09:14.309Z,17.00
2022-10-29T07:11:40.940Z,16.90
2022-10-29T07:14:09.742Z,17.00
2022-10-29T07:16:36.747Z,17.00
2022-10-29T07:19:04.806Z,17.10
2022-10-29T07:21:31.740Z,17.20
2022-10-29T07:23:58.453Z,17.30
2022-10-29T07:26:25.207Z,17.30
2022-10-29T07:28:56.902Z,17.30
2022-10-29T07:31:24.370Z,17.20
2022-10-29T07:33:51.308Z,17.10
2022-10-29T07:36:17.957Z,17.00
2022-10-29T07:38:44.715Z,17.10
2022-10-29T07:41:11.389Z,17.10
2022-10-29T07:43:38.013Z,17.00
2022-10-29T07:46:04.720Z,17.00
2022-10-29T07:48:31.335Z,17.00
2022-10-29T07:50:59.253Z,16.60
2022-10-29T07:53:26.053Z,16.30
2022-10-29T07:55:56.158Z,16.00
2022-10-29T07:58:23.717Z,15.90
2022-10-29T08:00:50.530Z,15.70
2022-10-29T08:03:17.337Z,15.60
2022-10-29T08:05:44.004Z,15.40
2022-10-29T08:08:10.701Z,15.30
2022-10-29T08:10:37.459Z,15.30
2022-10-29T08:13:05.509Z,15.30
2022-10-29T08:15:33.593Z,15.30
2022-10-29T08:18:00.908Z,15.30
2022-10-29T08:20:29.171Z,15.40
2022-10-29T08:22:58.846Z,15.50
2022-10-29T08:25:26.102Z,15.50
2022-10-29T08:28:00.659Z,15.50
2022-10-29T08:30:27.852Z,15.50
2022-10-29T08:32:55.016Z,15.60
2022-10-29T08:35:22.039Z,15.70
2022-10-29T08:37:48.898Z,15.90
2022-10-29T08:40:46.679Z,15.90
2022-10-29T08:43:28.432Z,15.90
2022-10-29T08:45:56.071Z,15.90
2022-10-29T08:48:34.648Z,15.90
2022-10-29T08:51:14.240Z,15.70
2022-10-29T08:53:54.175Z,15.70
2022-10-29T08:56:37.054Z,15.70
2022-10-29T08:59:13.371Z,15.70
2022-10-29T09:01:40.518Z,15.90
2022-10-29T09:04:24.703Z,16.10
2022-10-29T09:07:09.340Z,16.20
2022-10-29T09:09:44.007Z,16.40
2022-10-29T09:12:16.126Z,16.70
2022-10-29T09:15:02.895Z,16.90
2022-10-29T09:17:38.140Z,18.80
2022-10-29T09:20:12.664Z,17.30
2022-10-29T09:22:57.401Z,17.50
2022-10-29T09:25:33.089Z,17.70
2022-10-29T09:28:13.782Z,17.70
2022-10-29T09:30:58.780Z,17.70
2022-10-29T09:33:25.979Z,17.70
2022-10-29T09:35:59.032Z,17.70
2022-10-29T09:38:36.381Z,17.60
2022-10-29T09:41:04.531Z,17.80
2022-10-29T09:43:51.312Z,17.80
2022-10-29T09:46:29.548Z,18.00
2022-10-29T09:49:20.993Z,16.30
2022-10-29T09:52:07.783Z,18.00
2022-10-29T09:54:35.133Z,17.90
2022-10-29T09:57:03.399Z,18.00
2022-10-29T09:59:38.551Z,18.10
2022-10-29T10:02:36.200Z,18.10
2022-10-29T10:05:14.372Z,18.00
2022-10-29T10:07:41.412Z,17.90
2022-10-29T10:10:20.872Z,18.00
2022-10-29T10:12:49.891Z,18.10
2022-10-29T10:15:16.426Z,18.20
2022-10-29T10:17:58.535Z,18.10
2022-10-29T10:20:36.117Z,18.00
2022-10-29T10:23:21.258Z,18.20
2022-10-29T10:25:48.487Z,18.20
2022-10-29T10:28:22.540Z,18.20
2022-10-29T10:31:04.489Z,18.30
2022-10-29T10:33:33.272Z,18.40
2022-10-29T10:36:09.132Z,18.30
2022-10-29T10:38:48.584Z,18.20
2022-10-29T10:41:22.761Z,18.00
2022-10-29T10:43:49.944Z,18.10
2022-10-29T10:46:27.733Z,18.20
2022-10-29T10:49:11.479Z,18.30
2022-10-29T10:51:42.546Z,18.30
2022-10-29T10:54:37.053Z,18.40
2022-10-29T10:57:13.123Z,18.40
2022-10-29T10:59:39.762Z,18.50
2022-10-29T11:02:16.671Z,18.40
2022-10-29T11:04:45.325Z,18.40
2022-10-29T11:07:13.973Z,18.50
2022-10-29T11:09:46.672Z,18.50
2022-10-29T11:12:24.294Z,18.60
2022-10-29T11:15:04.488Z,18.70
2022-10-29T11:17:38.424Z,18.70
2022-10-29T11:20:18.156Z,18.70
2022-10-29T11:23:02.149Z,18.70
2022-10-29T11:25:50.099Z,18.70
2022-10-29T11:28:38.808Z,18.60
2022-10-29T11:31:44.124Z,18.60
2022-10-29T11:34:37.979Z,18.80
2022-10-29T11:37:20.344Z,18.80
2022-10-29T11:39:54.462Z,18.80
2022-10-29T11:42:21.109Z,18.70
2022-10-29T11:44:47.842Z,18.80
2022-10-29T11:47:57.103Z,18.70
2022-10-29T11:51:01.775Z,18.80
2022-10-29T11:53:41.350Z,18.60
2022-10-29T11:56:26.235Z,18.60
2022-10-29T11:59:05.201Z,18.70
2022-10-29T12:01:47.580Z,18.80
2022-10-29T12:04:21.310Z,18.90
2022-10-29T12:07:09.422Z,19.00
2022-10-29T12:09:45.039Z,19.00
2022-10-29T12:12:33.312Z,19.10
2022-10-29T12:15:04.850Z,19.10
2022-10-29T12:17:37.554Z,19.10
2022-10-29T12:20:22.173Z,19.20
2022-10-29T12:23:03.944Z,19.20
2022-10-29T12:26:09.262Z,19.30
2022-10-29T12:29:09.476Z,19.40
2022-10-29T12:31:59.713Z,19.40
2022-10-29T12:34:37.031Z,19.40
2022-10-29T12:37:22.357Z,19.40
2022-10-29T12:39:55.737Z,19.30
2022-10-29T12:42:27.512Z,19.40
2022-10-29T12:45:23.172Z,19.40
2022-10-29T12:48:00.428Z,19.50
2022-10-29T12:51:01.733Z,19.60
2022-10-29T12:53:39.680Z,19.60
2022-10-29T12:56:08.281Z,19.50
2022-10-29T12:58:49.887Z,19.50
2022-10-29T13:02:05.347Z,19.50
2022-10-29T13:04:31.604Z,19.50
2022-10-29T13:07:00.190Z,19.30
2022-10-29T13:09:34.147Z,19.30
2022-10-29T13:12:10.327Z,19.40
2022-10-29T13:14:54.647Z,19.40
2022-10-29T13:17:28.500Z,19.50
2022-10-29T13:20:01.013Z,19.60
2022-10-29T13:22:56.786Z,19.60
2022-10-29T13:25:38.534Z,19.60
2022-10-29T13:28:08.124Z,19.70
2022-10-29T13:30:40.331Z,19.60
2022-10-29T13:33:28.213Z,19.60
2022-10-29T13:36:01.607Z,19.60
2022-10-29T13:39:05.645Z,19.50
2022-10-29T13:41:42.741Z,19.40
2022-10-29T13:44:24.170Z,19.30
2022-10-29T13:47:17.793Z,19.30
2022-10-29T13:49:46.368Z,19.30
2022-10-29T13:52:21.452Z,19.30
2022-10-29T13:54:58.435Z,19.20
2022-10-29T13:57:26.463Z,19.30
2022-10-29T14:00:01.729Z,19.30
2022-10-29T14:02:48.928Z,19.40
2022-10-29T14:05:26.015Z,19.30
2022-10-29T14:08:11.540Z,19.30
2022-10-29T14:10:41.352Z,19.40
2022-10-29T14:13:22.046Z,19.50
2022-10-29T14:16:06.064Z,19.50
2022-10-29T14:18:43.125Z,19.50
2022-10-29T14:21:14.708Z,19.50
2022-10-29T14:23:41.486Z,19.40
2022-10-29T14:26:16.498Z,19.40
2022-10-29T14:28:43.317Z,19.40
2022-10-29T14:31:16.229Z,19.40
2022-10-29T14:33:45.455Z,19.30
2022-10-29T14:36:33.838Z,19.40
2022-10-29T14:39:09.730Z,19.40
2022-10-29T14:41:38.867Z,19.60
2022-10-29T14:44:24.997Z,19.60
2022-10-29T14:47:04.958Z,19.50
2022-10-29T14:49:35.194Z,19.50
2022-10-29T14:52:05.793Z,19.50
2022-10-29T14:54:35.875Z,19.50
2022-10-29T14:57:07.665Z,19.50
2022-10-29T14:59:36.189Z,18.50
2022-10-29T15:02:32.573Z,19.40
2022-10-29T15:05:04.622Z,19.50
2022-10-29T15:07:35.976Z,19.40
2022-10-29T15:10:23.916Z,19.40
2022-10-29T15:12:52.196Z,19.30
2022-10-29T15:15:18.883Z,19.30
2022-10-29T15:17:54.515Z,19.30
2022-10-29T15:20:25.149Z,19.30
2022-10-29T15:22:56.582Z,19.30
2022-10-29T15:25:36.863Z,19.30
2022-10-29T15:28:08.764Z,19.30
2022-10-29T15:30:37.371Z,19.20
2022-10-29T15:33:10.320Z,19.20
2022-10-29T15:35:46.397Z,19.10
2022-10-29T15:38:36.425Z,19.10
2022-10-29T15:41:09.258Z,19.10
2022-10-29T15:43:52.440Z,19.20
2022-10-29T15:46:43.453Z,19.20
2022-10-29T15:49:16.011Z,19.20
2022-10-29T15:51:43.000Z,19.20
2022-10-29T15:54:16.090Z,19.20
2022-10-29T15:56:42.834Z,19.00
2022-10-29T15:59:19.395Z,19.00
2022-10-29T16:01:46.171Z,19.00
2022-10-29T16:04:12.842Z,19.00
2022-10-29T16:06:39.483Z,18.90
2022-10-29T16:09:06.217Z,18.90
2022-10-29T16:11:34.851Z,18.90
2022-10-29T16:14:01.581Z,18.90
2022-10-29T16:16:30.721Z,18.90
2022-10-29T16:18:57.356Z,18.80
2022-10-29T16:21:25.698Z,19.10
2022-10-29T16:23:52.951Z,18.80
2022-10-29T16:26:23.000Z,18.70
2022-10-29T16:28:49.835Z,18.80
2022-10-29T16:31:25.882Z,18.70
2022-10-29T16:33:54.972Z,18.70
2022-10-29T16:36:21.601Z,18.70
2022-10-29T16:38:48.341Z,18.80
2022-10-29T16:41:16.913Z,18.80
2022-10-29T16:43:44.079Z,18.70
2022-10-29T16:46:12.020Z,18.50
2022-10-29T16:48:39.280Z,18.40
2022-10-29T16:51:06.064Z,18.40
2022-10-29T16:53:32.857Z,18.30
2022-10-29T16:55:59.758Z,18.20
2022-10-29T16:58:26.401Z,18.20
2022-10-29T17:01:02.921Z,18.10
2022-10-29T17:03:29.641Z,18.10
2022-10-29T17:06:02.311Z,18.00
2022-10-29T17:08:33.791Z,18.00
2022-10-29T17:11:01.772Z,18.00
2022-10-29T17:13:28.614Z,18.10
2022-10-29T17:15:55.365Z,17.80
2022-10-29T17:18:24.117Z,17.80
2022-10-29T17:20:58.578Z,17.90
2022-10-29T17:23:25.335Z,18.10
2022-10-29T17:25:54.117Z,18.30
2022-10-29T17:28:21.679Z,18.40
2022-10-29T17:30:48.476Z,18.40
2022-10-29T17:33:16.085Z,18.40
2022-10-29T17:35:43.839Z,18.40
2022-10-29T17:38:10.938Z,18.40
2022-10-29T17:40:37.729Z,18.40
2022-10-29T17:43:04.617Z,19.00
2022-10-29T17:45:31.313Z,18.50
2022-10-29T17:47:58.968Z,18.40
2022-10-29T17:50:26.052Z,18.20
2022-10-29T17:52:53.708Z,18.10
2022-10-29T17:55:20.939Z,18.00
2022-10-29T17:57:47.564Z,18.00
2022-10-29T18:00:14.877Z,17.80
2022-10-29T18:02:41.587Z,17.70
2022-10-29T18:05:08.495Z,17.60
2022-10-29T18:07:35.082Z,17.70
2022-10-29T18:10:01.702Z,17.60
2022-10-29T18:12:28.325Z,17.70
2022-10-29T18:14:54.845Z,17.70
2022-10-29T18:17:21.439Z,17.70
2022-10-29T18:19:48.104Z,17.60
2022-10-29T18:22:14.778Z,17.60
2022-10-29T18:24:41.353Z,17.60
2022-10-29T18:27:07.955Z,17.50
2022-10-29T18:29:34.552Z,16.90
2022-10-29T18:32:01.418Z,17.50
2022-10-29T18:34:29.221Z,17.50
2022-10-29T18:36:55.862Z,17.50
2022-10-29T18:39:22.615Z,17.40
2022-10-29T18:41:49.394Z,17.50
2022-10-29T18:44:16.094Z,17.50
2022-10-29T18:46:42.900Z,15.90
2022-10-29T18:49:11.153Z,17.40
2022-10-29T18:51:37.778Z,17.40
2022-10-29T18:54:05.061Z,17.40
2022-10-29T18:56:31.949Z,17.30
2022-10-29T18:58:59.621Z,17.30
2022-10-29T19:01:32.169Z,18.20
2022-10-29T19:04:04.949Z,17.30
2022-10-29T19:06:34.110Z,17.30
2022-10-29T19:09:02.618Z,17.30
2022-10-29T19:11:29.861Z,17.30
2022-10-29T19:13:58.924Z,17.30
2022-10-29T19:16:26.946Z,17.30
2022-10-29T19:19:08.344Z,17.30
2022-10-29T19:21:36.796Z,17.30
2022-10-29T19:24:04.448Z,17.30
2022-10-29T19:26:33.570Z,17.30
2022-10-29T19:29:02.097Z,17.30
2022-10-29T19:31:30.518Z,17.30
2022-10-29T19:34:00.023Z,17.30
2022-10-29T19:36:28.369Z,17.30
2022-10-29T19:38:56.151Z,17.20
2022-10-29T19:41:23.407Z,17.20
2022-10-29T19:43:50.549Z,17.20
2022-10-29T19:46:19.252Z,17.40
2022-10-29T19:48:50.551Z,17.50
2022-10-29T19:51:17.673Z,17.50
2022-10-29T19:53:44.697Z,17.50
2022-10-29T19:56:13.006Z,17.50
2022-10-29T19:58:39.957Z,17.50
2022-10-29T20:01:12.537Z,17.60
2022-10-29T20:03:39.238Z,17.50
2022-10-29T20:06:06.619Z,17.40
2022-10-29T20:08:33.433Z,17.30
2022-10-29T20:11:00.858Z,17.30
2022-10-29T20:13:28.033Z,17.20
2022-10-29T20:15:55.061Z,17.20
2022-10-29T20:18:22.509Z,17.20
2022-10-29T20:20:56.520Z,17.10
2022-10-29T20:23:24.006Z,17.10
2022-10-29T20:25:50.684Z,17.10
2022-10-29T20:28:17.462Z,17.00
2022-10-29T20:30:44.155Z,17.00
2022-10-29T20:33:10.864Z,17.00
2022-10-29T20:35:37.473Z,17.00
2022-10-29T20:38:04.631Z,17.00
2022-10-29T20:40:31.256Z,17.00
2022-10-29T20:42:57.889Z,16.90
2022-10-29T20:45:24.534Z,17.00
2022-10-29T20:47:51.403Z,17.00
2022-10-29T20:50:18.005Z,17.00
2022-10-29T20:52:48.577Z,17.00
2022-10-29T20:55:15.914Z,16.90
2022-10-29T20:57:42.505Z,16.90
2022-10-29T21:00:09.940Z,16.90
2022-10-29T21:02:36.642Z,16.90
2022-10-29T21:05:03.577Z,16.90
2022-10-29T21:07:30.214Z,16.90
2022-10-29T21:09:56.813Z,16.90
2022-10-29T21:12:23.467Z,16.90
2022-10-29T21:14:50.055Z,16.90
2022-10-29T21:17:16.637Z,16.00
2022-10-29T21:19:43.283Z,16.80
2022-10-29T21:22:09.882Z,16.90
2022-10-29T21:24:38.284Z,16.80
2022-10-29T21:27:06.923Z,16.80
2022-10-29T21:29:33.569Z,16.80
2022-10-29T21:32:00.131Z,16.80
2022-10-29T21:34:26.725Z,16.80
2022-10-29T21:36:53.917Z,16.80
2022-10-29T21:39:20.589Z,16.70
2022-10-29T21:41:47.211Z,16.70
2022-10-29T21:44:13.808Z,16.70
2022-10-29T21:46:40.371Z,16.70
2022-10-29T21:49:07.023Z,16.70
2022-10-29T21:51:33.631Z,16.70
2022-10-29T21:54:00.233Z,16.70
2022-10-29T21:56:26.851Z,16.60
2022-10-29T21:58:53.459Z,16.70
2022-10-29T22:01:20.295Z,16.70
2022-10-29T22:03:47.745Z,16.70
2022-10-29T22:06:19.919Z,16.70
2022-10-29T22:08:47.839Z,16.60
2022-10-29T22:11:15.527Z,16.60
2022-10-29T22:13:42.159Z,16.60
2022-10-29T22:16:09.785Z,16.60
2022-10-29T22:18:37.498Z,16.60
2022-10-29T22:21:21.480Z,16.60
2022-10-29T22:23:55.966Z,16.60
2022-10-29T22:26:25.595Z,16.60
2022-10-29T22:28:52.228Z,16.60
2022-10-29T22:31:20.730Z,16.60
2022-10-29T22:33:47.784Z,16.50
2022-10-29T22:36:17.395Z,16.50
2022-10-29T22:38:44.225Z,14.90
2022-10-29T22:41:16.025Z,16.50
2022-10-29T22:43:43.923Z,16.50
2022-10-29T22:46:13.123Z,16.50
2022-10-29T22:48:39.784Z,16.50
2022-10-29T22:51:13.861Z,16.50
2022-10-29T22:53:40.724Z,16.50
2022-10-29T22:56:09.551Z,15.80
2022-10-29T22:58:36.155Z,16.50
2022-10-29T23:01:08.169Z,16.50
2022-10-29T23:03:35.846Z,17.20
2022-10-29T23:06:04.056Z,16.50
2022-10-29T23:08:32.047Z,16.40
2022-10-29T23:10:59.476Z,16.40
2022-10-29T23:13:26.096Z,16.40
2022-10-29T23:15:53.313Z,16.40
2022-10-29T23:18:20.193Z,16.40
2022-10-29T23:20:46.836Z,16.40
2022-10-29T23:23:13.895Z,16.30
2022-10-29T23:25:41.661Z,16.40
2022-10-29T23:28:08.734Z,16.40
2022-10-29T23:30:35.680Z,16.30
2022-10-29T23:33:02.313Z,16.30
2022-10-29T23:35:28.934Z,16.30
2022-10-29T23:37:55.870Z,16.30
2022-10-29T23:40:22.685Z,16.30
2022-10-29T23:42:49.299Z,16.30
2022-10-29T23:45:16.931Z,16.30
2022-10-29T23:47:43.676Z,16.30
2022-10-29T23:50:10.576Z,16.30
2022-10-29T23:52:37.197Z,16.30
2022-10-29T23:55:04.018Z,16.30
2022-10-29T23:57:30.676Z,16.30
2022-10-29T23:59:57.378Z,16.20
